createdAt,value
2024-03-12T00:01:00.116Z,99.90
2024-03-12T00:02:08.595Z,99.90
2024-03-12T00:03:12.417Z,99.90
2024-03-12T00:04:14.857Z,99.90
2024-03-12T00:05:21.568Z,99.90
2024-03-12T00:06:24.235Z,99.90
2024-03-12T00:07:27.729Z,99.90
2024-03-12T00:08:30.220Z,99.90
2024-03-12T00:09:35.050Z,99.90
2024-03-12T00:10:37.716Z,99.90
2024-03-12T00:11:40.174Z,99.90
2024-03-12T00:12:49.575Z,99.90
2024-03-12T00:13:52.711Z,99.90
2024-03-12T00:14:56.115Z,99.90
2024-03-12T00:16:01.721Z,99.90
2024-03-12T00:17:05.090Z,99.90
2024-03-12T00:18:07.603Z,99.90
2024-03-12T00:19:10.834Z,99.90
2024-03-12T00:20:33.760Z,99.90
2024-03-12T00:21:38.348Z,99.90
2024-03-12T00:22:44.625Z,99.90
2024-03-12T00:23:47.649Z,99.90
2024-03-12T00:24:51.025Z,99.90
2024-03-12T00:25:53.353Z,99.90
2024-03-12T00:26:55.726Z,99.90
2024-03-12T00:27:58.125Z,99.90
2024-03-12T00:29:00.613Z,99.90
2024-03-12T00:30:04.551Z,99.90
2024-03-12T00:31:07.038Z,99.90
2024-03-12T00:32:09.527Z,99.90
2024-03-12T00:33:11.996Z,99.90
2024-03-12T00:34:15.328Z,99.90
2024-03-12T00:35:18.240Z,99.90
2024-03-12T00:36:20.649Z,99.90
2024-03-12T00:37:23.100Z,99.90
2024-03-12T00:38:26.296Z,99.90
2024-03-12T00:39:28.662Z,99.90
2024-03-12T00:40:40.451Z,99.90
2024-03-12T00:41:42.943Z,99.90
2024-03-12T00:42:45.580Z,99.90
2024-03-12T00:43:47.917Z,99.90
2024-03-12T00:44:50.766Z,99.90
2024-03-12T00:45:54.444Z,99.90
2024-03-12T00:46:57.132Z,99.90
2024-03-12T00:47:59.551Z,99.90
2024-03-12T00:49:01.933Z,99.90
2024-03-12T00:50:05.761Z,99.90
2024-03-12T00:51:08.303Z,99.90
2024-03-12T00:52:10.933Z,99.90
2024-03-12T00:53:14.386Z,99.90
2024-03-12T00:54:16.751Z,99.90
2024-03-12T00:55:19.913Z,99.90
2024-03-12T00:56:22.743Z,99.90
2024-03-12T00:57:28.369Z,99.90
2024-03-12T00:58:34.323Z,99.90
2024-03-12T00:59:37.038Z,99.90
2024-03-12T01:00:41.250Z,99.90
2024-03-12T01:01:44.071Z,99.90
2024-03-12T01:02:50.611Z,99.90
2024-03-12T01:03:56.011Z,99.90
2024-03-12T01:05:00.958Z,99.90
2024-03-12T01:06:03.429Z,99.90
2024-03-12T01:07:08.639Z,99.90
2024-03-12T01:08:13.361Z,99.90
2024-03-12T01:09:19.000Z,99.90
2024-03-12T01:10:22.283Z,99.90
2024-03-12T01:11:24.717Z,99.90
2024-03-12T01:12:27.894Z,99.90
2024-03-12T01:13:30.619Z,99.90
2024-03-12T01:14:32.991Z,99.90
2024-03-12T01:15:36.459Z,99.90
2024-03-12T01:16:39.246Z,99.90
2024-03-12T01:17:41.692Z,99.90
2024-03-12T01:18:44.287Z,99.90
2024-03-12T01:19:46.828Z,99.90
2024-03-12T01:20:50.685Z,99.90
2024-03-12T01:21:54.516Z,99.90
2024-03-12T01:22:56.932Z,99.90
2024-03-12T01:23:59.252Z,99.90
2024-03-12T01:25:02.673Z,99.90
2024-03-12T01:26:07.965Z,99.90
2024-03-12T01:27:14.702Z,99.90
2024-03-12T01:28:17.156Z,99.90
2024-03-12T01:29:20.231Z,99.90
2024-03-12T01:30:27.913Z,99.90
2024-03-12T01:31:32.443Z,99.90
2024-03-12T01:32:35.899Z,99.90
2024-03-12T01:33:38.418Z,99.90
2024-03-12T01:34:40.771Z,99.90
2024-03-12T01:35:43.205Z,99.90
2024-03-12T01:36:48.437Z,99.90
2024-03-12T01:37:52.879Z,99.90
2024-03-12T01:38:55.964Z,99.90
2024-03-12T01:39:58.536Z,99.90
2024-03-12T01:41:01.539Z,99.90
2024-03-12T01:42:03.967Z,99.90
2024-03-12T01:43:08.497Z,99.90
2024-03-12T01:44:12.280Z,99.90
2024-03-12T01:45:16.219Z,99.90
2024-03-12T01:46:19.816Z,99.90
2024-03-12T01:47:22.295Z,99.90
2024-03-12T01:48:24.931Z,99.90
2024-03-12T01:49:27.364Z,99.90
2024-03-12T01:50:29.824Z,99.90
2024-03-12T01:51:33.172Z,99.90
2024-03-12T01:52:35.541Z,99.90
2024-03-12T01:53:39.437Z,99.90
2024-03-12T01:54:41.885Z,99.90
2024-03-12T01:55:45.627Z,99.90
2024-03-12T01:56:51.768Z,99.90
2024-03-12T01:57:55.765Z,99.90
2024-03-12T01:58:58.973Z,99.90
2024-03-12T02:00:01.956Z,99.90
2024-03-12T02:01:14.372Z,99.90
2024-03-12T02:02:18.265Z,99.90
2024-03-12T02:03:21.080Z,99.90
2024-03-12T02:04:23.447Z,99.90
2024-03-12T02:05:25.833Z,99.90
2024-03-12T02:06:28.945Z,99.90
2024-03-12T02:07:31.807Z,99.90
2024-03-12T02:08:34.249Z,99.90
2024-03-12T02:09:36.693Z,99.90
2024-03-12T02:10:39.092Z,99.90
2024-03-12T02:11:41.524Z,99.90
2024-03-12T02:12:47.681Z,99.90
2024-03-12T02:13:52.599Z,99.90
2024-03-12T02:14:55.025Z,99.90
2024-03-12T02:15:59.359Z,99.90
2024-03-12T02:17:01.803Z,99.90
2024-03-12T02:18:04.370Z,99.90
2024-03-12T02:19:06.800Z,99.90
2024-03-12T02:20:10.952Z,99.90
2024-03-12T02:21:14.113Z,99.90
2024-03-12T02:22:16.487Z,99.90
2024-03-12T02:23:19.003Z,99.90
2024-03-12T02:24:21.345Z,99.90
2024-03-12T02:25:24.641Z,99.90
2024-03-12T02:26:27.466Z,99.90
2024-03-12T02:27:30.021Z,99.90
2024-03-12T02:28:32.980Z,99.90
2024-03-12T02:29:35.519Z,99.90
2024-03-12T02:30:38.061Z,99.90
2024-03-12T02:31:40.528Z,99.90
2024-03-12T02:32:43.042Z,99.90
2024-03-12T02:33:45.458Z,99.90
2024-03-12T02:34:49.813Z,99.90
2024-03-12T02:35:53.060Z,99.90
2024-03-12T02:36:55.742Z,99.90
2024-03-12T02:37:58.139Z,99.90
2024-03-12T02:39:00.486Z,99.90
2024-03-12T02:40:03.198Z,99.90
2024-03-12T02:41:08.530Z,99.90
2024-03-12T02:42:10.916Z,99.90
2024-03-12T02:43:14.816Z,99.90
2024-03-12T02:44:17.264Z,99.90
2024-03-12T02:45:22.153Z,99.90
2024-03-12T02:46:24.904Z,99.90
2024-03-12T02:47:28.189Z,99.90
2024-03-12T02:48:30.863Z,99.90
2024-03-12T02:49:33.317Z,99.90
2024-03-12T02:50:35.689Z,99.90
2024-03-12T02:51:38.810Z,99.90
2024-03-12T02:52:43.297Z,99.90
2024-03-12T02:53:46.018Z,99.90
2024-03-12T02:54:48.381Z,99.90
2024-03-12T02:55:50.757Z,99.90
2024-03-12T02:56:55.066Z,99.90
2024-03-12T02:57:57.534Z,99.90
2024-03-12T02:59:00.069Z,99.90
2024-03-12T03:00:08.292Z,99.90
2024-03-12T03:01:10.997Z,99.90
2024-03-12T03:02:14.106Z,99.90
2024-03-12T03:03:16.423Z,99.90
2024-03-12T03:04:19.357Z,99.90
2024-03-12T03:05:22.139Z,99.90
2024-03-12T03:06:25.821Z,99.90
2024-03-12T03:07:28.441Z,99.90
2024-03-12T03:08:32.242Z,99.90
2024-03-12T03:09:34.754Z,99.90
2024-03-12T03:10:37.082Z,99.90
2024-03-12T03:11:39.482Z,99.90
2024-03-12T03:12:43.266Z,99.90
2024-03-12T03:13:45.762Z,99.90
2024-03-12T03:14:48.166Z,99.90
2024-03-12T03:15:50.690Z,99.90
2024-03-12T03:16:55.326Z,99.90
2024-03-12T03:17:57.777Z,99.90
2024-03-12T03:19:00.279Z,99.90
2024-03-12T03:20:06.169Z,99.90
2024-03-12T03:21:10.217Z,99.90
2024-03-12T03:22:12.774Z,99.90
2024-03-12T03:23:15.413Z,99.90
2024-03-12T03:24:17.992Z,99.90
2024-03-12T03:25:20.435Z,99.90
2024-03-12T03:26:23.500Z,99.90
2024-03-12T03:27:25.900Z,99.90
2024-03-12T03:28:28.790Z,99.90
2024-03-12T03:29:34.037Z,99.90
2024-03-12T03:30:36.747Z,99.90
2024-03-12T03:31:39.323Z,99.90
2024-03-12T03:32:41.992Z,99.90
2024-03-12T03:33:46.517Z,99.90
2024-03-12T03:34:48.958Z,99.90
2024-03-12T03:35:52.625Z,99.90
2024-03-12T03:36:57.206Z,99.90
2024-03-12T03:38:00.892Z,99.90
2024-03-12T03:39:03.672Z,99.90
2024-03-12T03:40:11.080Z,99.90
2024-03-12T03:41:13.610Z,99.90
2024-03-12T03:42:16.515Z,99.90
2024-03-12T03:43:18.880Z,99.90
2024-03-12T03:44:21.320Z,99.90
2024-03-12T03:45:24.896Z,99.90
2024-03-12T03:46:27.282Z,99.90
2024-03-12T03:47:35.585Z,99.90
2024-03-12T03:48:38.189Z,99.90
2024-03-12T03:49:40.905Z,99.90
2024-03-12T03:50:43.305Z,99.90
2024-03-12T03:51:45.772Z,99.90
2024-03-12T03:52:49.288Z,99.90
2024-03-12T03:53:51.784Z,99.90
2024-03-12T03:54:54.758Z,99.90
2024-03-12T03:56:04.353Z,99.90
2024-03-12T03:57:06.917Z,99.90
2024-03-12T03:58:09.487Z,99.90
2024-03-12T03:59:14.457Z,99.90
2024-03-12T04:00:18.382Z,99.90
2024-03-12T04:01:20.950Z,99.90
2024-03-12T04:02:23.586Z,99.90
2024-03-12T04:03:26.612Z,99.90
2024-03-12T04:04:29.068Z,99.90
2024-03-12T04:05:34.255Z,99.90
2024-03-12T04:06:38.642Z,99.90
2024-03-12T04:07:42.363Z,99.90
2024-03-12T04:08:44.865Z,99.90
2024-03-12T04:09:47.829Z,99.90
2024-03-12T04:10:50.256Z,99.90
2024-03-12T04:11:52.731Z,99.90
2024-03-12T04:12:57.901Z,99.90
2024-03-12T04:14:00.961Z,99.90
2024-03-12T04:15:03.684Z,99.90
2024-03-12T04:17:09.698Z,99.90
2024-03-12T04:18:13.274Z,99.90
2024-03-12T04:19:16.182Z,99.90
2024-03-12T04:20:18.739Z,99.90
2024-03-12T04:21:22.035Z,99.90
2024-03-12T04:22:24.625Z,99.90
2024-03-12T04:23:26.981Z,99.90
2024-03-12T04:24:29.360Z,99.90
2024-03-12T04:25:31.798Z,99.90
2024-03-12T04:26:34.587Z,99.90
2024-03-12T04:27:40.304Z,99.90
2024-03-12T04:28:43.828Z,99.90
2024-03-12T04:29:46.178Z,99.90
2024-03-12T04:30:51.625Z,99.90
2024-03-12T04:31:56.377Z,99.90
2024-03-12T04:32:58.806Z,99.90
2024-03-12T04:34:01.261Z,99.90
2024-03-12T04:35:05.877Z,99.90
2024-03-12T04:36:08.320Z,99.90
2024-03-12T04:37:13.968Z,99.90
2024-03-12T04:38:17.627Z,99.90
2024-03-12T04:39:32.812Z,99.90
2024-03-12T04:40:35.561Z,99.90
2024-03-12T04:41:38.056Z,99.90
2024-03-12T04:42:41.238Z,99.90
2024-03-12T04:43:43.737Z,99.90
2024-03-12T04:44:47.590Z,99.90
2024-03-12T04:45:49.940Z,99.90
2024-03-12T04:46:52.381Z,99.90
2024-03-12T04:47:56.170Z,99.90
2024-03-12T04:48:58.589Z,99.90
2024-03-12T04:50:01.041Z,99.90
2024-03-12T04:51:04.036Z,99.90
2024-03-12T04:52:07.156Z,99.90
2024-03-12T04:53:09.512Z,99.90
2024-03-12T04:54:12.287Z,99.90
2024-03-12T04:55:14.970Z,99.90
2024-03-12T04:56:17.910Z,99.90
2024-03-12T04:57:20.902Z,99.90
2024-03-12T04:58:23.268Z,99.90
2024-03-12T04:59:25.674Z,99.90
2024-03-12T05:00:32.680Z,99.90
2024-03-12T05:01:35.415Z,99.90
2024-03-12T05:02:37.804Z,99.90
2024-03-12T05:03:41.277Z,99.90
2024-03-12T05:04:43.693Z,99.90
2024-03-12T05:05:46.666Z,99.90
2024-03-12T05:06:49.106Z,99.90
2024-03-12T05:07:52.213Z,99.90
2024-03-12T05:08:57.079Z,99.90
2024-03-12T05:10:01.017Z,99.90
2024-03-12T05:11:03.797Z,99.90
2024-03-12T05:12:06.362Z,99.90
2024-03-12T05:13:08.791Z,99.90
2024-03-12T05:14:11.334Z,99.90
2024-03-12T05:15:14.043Z,99.90
2024-03-12T05:16:16.466Z,99.90
2024-03-12T05:17:19.244Z,99.90
2024-03-12T05:18:21.613Z,99.90
2024-03-12T05:19:25.703Z,99.90
2024-03-12T05:20:30.741Z,99.90
2024-03-12T05:21:33.205Z,99.90
2024-03-12T05:22:35.650Z,99.90
2024-03-12T05:23:37.959Z,99.90
2024-03-12T05:24:40.556Z,99.90
2024-03-12T05:25:45.273Z,99.90
2024-03-12T05:26:50.576Z,99.90
2024-03-12T05:27:53.223Z,99.90
2024-03-12T05:28:58.251Z,99.90
2024-03-12T05:30:05.973Z,99.90
2024-03-12T05:31:09.266Z,99.90
2024-03-12T05:32:19.696Z,99.90
2024-03-12T05:33:29.286Z,99.90
2024-03-12T05:34:39.103Z,99.90
2024-03-12T05:35:48.648Z,99.90
2024-03-12T05:36:53.078Z,99.90
2024-03-12T05:38:23.407Z,99.90
2024-03-12T05:39:38.815Z,99.90
2024-03-12T05:40:43.738Z,99.90
2024-03-12T05:42:05.042Z,99.90
2024-03-12T05:43:27.293Z,99.90
2024-03-12T05:44:48.181Z,99.90
2024-03-12T05:46:09.280Z,99.90
2024-03-12T05:47:30.447Z,99.90
2024-03-12T05:48:33.029Z,99.90
2024-03-12T05:49:35.438Z,99.90
2024-03-12T05:50:42.510Z,99.90
2024-03-12T05:51:45.429Z,99.90
2024-03-12T05:52:48.089Z,99.90
2024-03-12T05:53:50.557Z,99.90
2024-03-12T05:54:52.942Z,99.90
2024-03-12T05:55:55.335Z,99.90
2024-03-12T05:56:57.630Z,99.90
2024-03-12T05:58:00.060Z,99.90
2024-03-12T05:59:02.494Z,99.90
2024-03-12T06:00:05.396Z,99.90
2024-03-12T06:01:15.158Z,99.90
2024-03-12T06:02:17.720Z,99.90
2024-03-12T06:03:22.137Z,99.90
2024-03-12T06:04:25.152Z,99.90
2024-03-12T06:05:27.707Z,99.90
2024-03-12T06:06:30.139Z,99.90
2024-03-12T06:07:32.654Z,99.90
2024-03-12T06:08:36.242Z,99.90
2024-03-12T06:09:38.683Z,99.90
2024-03-12T06:10:41.050Z,99.90
2024-03-12T06:11:43.401Z,99.90
2024-03-12T06:12:45.790Z,99.90
2024-03-12T06:13:48.945Z,99.90
2024-03-12T06:14:51.290Z,99.90
2024-03-12T06:15:56.134Z,99.90
2024-03-12T06:16:58.528Z,99.90
2024-03-12T06:18:03.823Z,99.90
2024-03-12T06:19:06.309Z,99.90
2024-03-12T06:20:11.488Z,99.90
2024-03-12T06:21:14.133Z,99.90
2024-03-12T06:22:16.768Z,99.90
2024-03-12T06:23:23.989Z,99.90
2024-03-12T06:24:26.405Z,99.90
2024-03-12T06:25:29.352Z,99.90
2024-03-12T06:26:32.171Z,99.90
2024-03-12T06:27:35.088Z,99.90
2024-03-12T06:28:37.668Z,99.90
2024-03-12T06:29:39.968Z,99.90
2024-03-12T06:30:44.425Z,99.90
2024-03-12T06:31:46.924Z,99.90
2024-03-12T06:32:49.325Z,99.90
2024-03-12T06:33:51.810Z,99.90
2024-03-12T06:34:54.190Z,99.90
2024-03-12T06:35:56.486Z,99.90
2024-03-12T06:36:58.934Z,99.90
2024-03-12T06:38:02.407Z,99.90
2024-03-12T06:39:06.988Z,99.90
2024-03-12T06:40:09.664Z,99.90
2024-03-12T06:41:12.328Z,99.90
2024-03-12T06:42:14.706Z,99.90
2024-03-12T06:43:19.018Z,99.90
2024-03-12T06:44:26.855Z,99.90
2024-03-12T06:45:29.459Z,99.90
2024-03-12T06:46:31.928Z,99.90
2024-03-12T06:47:40.037Z,99.90
2024-03-12T06:48:42.579Z,99.90
2024-03-12T06:49:45.847Z,99.90
2024-03-12T06:50:48.361Z,99.90
2024-03-12T06:51:52.129Z,99.90
2024-03-12T06:52:56.377Z,99.90
2024-03-12T06:54:00.445Z,99.90
2024-03-12T06:55:06.750Z,99.90
2024-03-12T06:56:09.681Z,99.90
2024-03-12T06:57:12.361Z,99.90
2024-03-12T06:58:20.007Z,99.90
2024-03-12T06:59:23.098Z,99.90
2024-03-12T07:00:33.527Z,99.90
2024-03-12T07:01:42.034Z,99.90
2024-03-12T07:02:44.464Z,99.90
2024-03-12T07:03:49.857Z,99.90
2024-03-12T07:04:56.413Z,99.90
2024-03-12T07:05:58.786Z,99.90
2024-03-12T07:07:01.913Z,99.90
2024-03-12T07:08:07.436Z,99.90
2024-03-12T07:09:13.725Z,99.90
2024-03-12T07:10:19.883Z,99.90
2024-03-12T07:11:22.394Z,99.90
2024-03-12T07:12:26.420Z,99.90
2024-03-12T07:13:28.961Z,99.90
2024-03-12T07:14:33.747Z,99.90
2024-03-12T07:15:40.072Z,99.90
2024-03-12T07:16:45.661Z,99.90
2024-03-12T07:17:48.433Z,99.90
2024-03-12T07:18:50.807Z,99.90
2024-03-12T07:19:53.178Z,99.90
2024-03-12T07:20:56.568Z,99.90
2024-03-12T07:21:58.997Z,99.90
2024-03-12T07:23:02.334Z,99.90
2024-03-12T07:24:08.572Z,99.90
2024-03-12T07:25:13.573Z,99.90
2024-03-12T07:26:16.436Z,99.90
2024-03-12T07:27:19.608Z,99.90
2024-03-12T07:28:24.741Z,99.90
2024-03-12T07:29:27.795Z,99.90
2024-03-12T07:30:31.532Z,99.90
2024-03-12T07:31:34.803Z,99.90
2024-03-12T07:32:38.116Z,99.90
2024-03-12T07:33:40.565Z,99.90
2024-03-12T07:34:43.592Z,99.90
2024-03-12T07:35:48.062Z,99.90
2024-03-12T07:36:50.921Z,99.90
2024-03-12T07:37:53.339Z,99.90
2024-03-12T07:38:57.922Z,99.90
2024-03-12T07:40:00.330Z,99.90
2024-03-12T07:41:02.770Z,99.90
2024-03-12T07:42:14.599Z,99.90
2024-03-12T07:43:17.867Z,99.90
2024-03-12T07:44:20.384Z,99.90
2024-03-12T07:45:26.324Z,99.90
2024-03-12T07:46:29.860Z,99.90
2024-03-12T07:47:33.232Z,99.90
2024-03-12T07:48:35.676Z,99.90
2024-03-12T07:49:38.409Z,99.90
2024-03-12T07:50:41.971Z,99.90
2024-03-12T07:51:44.357Z,99.90
2024-03-12T07:52:47.092Z,99.90
2024-03-12T07:53:50.847Z,99.90
2024-03-12T07:54:53.782Z,99.90
2024-03-12T07:55:57.915Z,99.90
2024-03-12T07:57:00.653Z,99.90
2024-03-12T07:58:04.303Z,99.90
2024-03-12T07:59:06.819Z,99.90
2024-03-12T08:00:18.698Z,99.90
2024-03-12T08:01:21.875Z,99.90
2024-03-12T08:02:24.495Z,99.90
2024-03-12T08:03:27.318Z,99.90
2024-03-12T08:04:30.062Z,99.90
2024-03-12T08:05:35.263Z,99.90
2024-03-12T08:06:37.890Z,99.90
2024-03-12T08:07:40.457Z,99.90
2024-03-12T08:08:43.250Z,99.90
2024-03-12T08:09:45.954Z,99.90
2024-03-12T08:10:48.379Z,99.90
2024-03-12T08:11:50.908Z,99.90
2024-03-12T08:12:54.055Z,99.90
2024-03-12T08:13:56.940Z,99.90
2024-03-12T08:15:00.118Z,99.90
2024-03-12T08:16:02.582Z,99.90
2024-03-12T08:17:19.537Z,99.90
2024-03-12T08:18:22.976Z,99.90
2024-03-12T08:19:26.883Z,99.90
2024-03-12T08:20:29.406Z,99.90
2024-03-12T08:21:31.848Z,99.90
2024-03-12T08:22:34.312Z,99.90
2024-03-12T08:23:36.591Z,99.90
2024-03-12T08:24:39.118Z,99.90
2024-03-12T08:25:54.705Z,99.90
2024-03-12T08:27:00.029Z,99.90
2024-03-12T08:28:02.533Z,99.90
2024-03-12T08:29:05.928Z,99.90
2024-03-12T08:30:13.244Z,99.90
2024-03-12T08:31:24.679Z,99.90
2024-03-12T08:32:36.508Z,99.90
2024-03-12T08:33:42.704Z,99.90
2024-03-12T08:34:45.241Z,99.90
2024-03-12T08:35:47.576Z,99.90
2024-03-12T08:36:51.126Z,99.90
2024-03-12T08:37:54.120Z,99.90
2024-03-12T08:38:58.413Z,99.90
2024-03-12T08:40:01.961Z,99.90
2024-03-12T08:41:04.597Z,99.90
2024-03-12T08:42:10.539Z,99.90
2024-03-12T08:43:14.159Z,99.90
2024-03-12T08:44:16.629Z,99.90
2024-03-12T08:45:23.076Z,99.90
2024-03-12T08:46:26.880Z,99.90
2024-03-12T08:47:29.299Z,99.90
2024-03-12T08:48:31.806Z,99.90
2024-03-12T08:49:34.892Z,99.90
2024-03-12T08:50:38.378Z,99.90
2024-03-12T08:51:41.213Z,99.90
2024-03-12T08:52:44.083Z,99.90
2024-03-12T08:53:47.664Z,99.90
2024-03-12T08:54:50.045Z,99.90
2024-03-12T08:55:52.455Z,99.90
2024-03-12T08:56:54.823Z,99.90
2024-03-12T08:57:57.521Z,99.90
2024-03-12T08:58:59.964Z,99.90
2024-03-12T09:00:02.754Z,99.90
2024-03-12T09:01:06.159Z,99.90
2024-03-12T09:02:08.765Z,99.90
2024-03-12T09:03:11.527Z,99.90
2024-03-12T09:04:14.457Z,99.90
2024-03-12T09:05:18.416Z,99.90
2024-03-12T09:06:21.682Z,99.90
2024-03-12T09:07:24.044Z,99.90
2024-03-12T09:08:26.563Z,99.90
2024-03-12T09:09:29.092Z,99.90
2024-03-12T09:10:38.201Z,99.90
2024-03-12T09:11:40.786Z,99.90
2024-03-12T09:12:43.251Z,99.90
2024-03-12T09:13:49.110Z,99.90
2024-03-12T09:14:53.824Z,99.90
2024-03-12T09:15:56.621Z,99.90
2024-03-12T09:16:59.024Z,99.90
2024-03-12T09:18:06.204Z,99.90
2024-03-12T09:19:10.225Z,99.90
2024-03-12T09:20:13.298Z,99.90
2024-03-12T09:21:16.190Z,99.90
2024-03-12T09:22:18.856Z,99.90
2024-03-12T09:23:21.924Z,99.90
2024-03-12T09:24:24.302Z,99.90
2024-03-12T09:25:27.855Z,99.90
2024-03-12T09:26:30.912Z,99.90
2024-03-12T09:27:33.450Z,99.90
2024-03-12T09:28:39.219Z,99.90
2024-03-12T09:29:41.909Z,99.90
2024-03-12T09:30:44.915Z,99.90
2024-03-12T09:31:47.681Z,99.90
2024-03-12T09:32:51.891Z,99.90
2024-03-12T09:33:55.377Z,99.90
2024-03-12T09:34:58.147Z,99.90
2024-03-12T09:36:00.516Z,99.90
2024-03-12T09:37:02.932Z,99.90
2024-03-12T09:38:05.597Z,99.90
2024-03-12T09:39:12.318Z,99.90
2024-03-12T09:40:15.216Z,99.90
2024-03-12T09:41:20.948Z,99.90
2024-03-12T09:42:27.287Z,99.90
2024-03-12T09:43:33.891Z,99.90
2024-03-12T09:44:37.391Z,99.90
2024-03-12T09:45:40.692Z,99.90
2024-03-12T09:46:44.094Z,99.90
2024-03-12T09:47:46.530Z,99.90
2024-03-12T09:48:52.730Z,99.90
2024-03-12T09:49:55.634Z,99.90
2024-03-12T09:50:59.507Z,99.90
2024-03-12T09:52:02.930Z,99.90
2024-03-12T09:53:05.555Z,99.90
2024-03-12T09:54:08.027Z,99.90
2024-03-12T09:55:12.202Z,99.90
2024-03-12T09:56:18.187Z,99.90
2024-03-12T09:57:23.465Z,99.90
2024-03-12T09:58:25.942Z,99.90
2024-03-12T09:59:28.267Z,99.90
2024-03-12T10:00:31.480Z,99.90
2024-03-12T10:01:34.570Z,99.90
2024-03-12T10:02:37.301Z,99.90
2024-03-12T10:03:39.820Z,99.90
2024-03-12T10:04:43.249Z,99.90
2024-03-12T10:05:45.677Z,99.90
2024-03-12T10:06:50.564Z,99.90
2024-03-12T10:08:15.175Z,99.90
2024-03-12T10:09:19.160Z,99.90
2024-03-12T10:10:21.658Z,99.90
2024-03-12T10:11:24.756Z,99.90
2024-03-12T10:12:28.863Z,99.90
2024-03-12T10:13:31.948Z,99.90
2024-03-12T10:14:37.105Z,99.90
2024-03-12T10:15:49.914Z,99.90
2024-03-12T10:16:52.282Z,99.90
2024-03-12T10:18:01.431Z,99.90
2024-03-12T10:19:11.335Z,99.90
2024-03-12T10:20:17.364Z,99.90
2024-03-12T10:21:23.896Z,99.90
2024-03-12T10:22:27.883Z,99.90
2024-03-12T10:23:33.304Z,99.90
2024-03-12T10:24:37.816Z,99.90
2024-03-12T10:25:40.784Z,99.90
2024-03-12T10:26:46.825Z,99.90
2024-03-12T10:28:06.526Z,99.90
2024-03-12T10:29:12.401Z,99.90
2024-03-12T10:30:27.522Z,99.90
2024-03-12T10:31:30.492Z,99.90
2024-03-12T10:32:33.215Z,99.90
2024-03-12T10:33:41.856Z,99.90
2024-03-12T10:34:44.362Z,99.90
2024-03-12T10:35:47.447Z,99.90
2024-03-12T10:36:51.597Z,99.90
2024-03-12T10:37:54.315Z,99.90
2024-03-12T10:38:56.802Z,99.90
2024-03-12T10:40:28.583Z,99.90
2024-03-12T10:41:30.976Z,99.90
2024-03-12T10:42:33.581Z,99.90
2024-03-12T10:43:36.047Z,99.90
2024-03-12T10:44:41.961Z,99.90
2024-03-12T10:45:46.074Z,99.90
2024-03-12T10:46:49.807Z,99.90
2024-03-12T10:47:52.321Z,99.90
2024-03-12T10:48:54.899Z,99.90
2024-03-12T10:49:57.498Z,99.90
2024-03-12T10:51:00.002Z,99.90
2024-03-12T10:52:02.893Z,99.90
2024-03-12T10:53:08.583Z,99.90
2024-03-12T10:54:15.429Z,99.90
2024-03-12T10:55:22.463Z,99.90
2024-03-12T10:56:25.247Z,99.90
2024-03-12T10:57:32.088Z,99.90
2024-03-12T10:58:35.319Z,99.90
2024-03-12T10:59:39.145Z,99.90
2024-03-12T11:00:41.731Z,99.90
2024-03-12T11:01:45.040Z,99.50
2024-03-12T11:02:49.873Z,99.20
2024-03-12T11:03:57.798Z,98.80
2024-03-12T11:05:00.605Z,98.60
2024-03-12T11:06:04.793Z,98.20
2024-03-12T11:07:09.921Z,98.10
2024-03-12T11:08:15.236Z,97.90
2024-03-12T11:09:23.077Z,97.60
2024-03-12T11:10:29.569Z,97.30
2024-03-12T11:11:35.837Z,97.20
2024-03-12T11:12:38.393Z,97.10
2024-03-12T11:13:42.023Z,96.90
2024-03-12T11:14:44.379Z,96.70
2024-03-12T11:15:47.489Z,96.60
2024-03-12T11:16:50.658Z,96.40
2024-03-12T11:17:53.209Z,96.40
2024-03-12T11:18:55.678Z,96.30
2024-03-12T11:20:02.260Z,96.20
2024-03-12T11:21:05.881Z,96.20
2024-03-12T11:22:16.097Z,96.30
2024-03-12T11:23:18.531Z,96.20
2024-03-12T11:24:31.679Z,96.20
2024-03-12T11:25:49.836Z,96.10
2024-03-12T11:26:53.680Z,96.10
2024-03-12T11:28:22.210Z,96.00
2024-03-12T11:30:05.321Z,95.90
2024-03-12T11:31:08.753Z,95.60
2024-03-12T11:32:13.608Z,95.60
2024-03-12T11:33:54.009Z,95.50
2024-03-12T11:34:57.705Z,95.20
2024-03-12T11:36:00.057Z,95.10
2024-03-12T11:37:15.883Z,95.10
2024-03-12T11:38:31.150Z,95.40
2024-03-12T11:39:35.027Z,95.30
2024-03-12T11:40:40.842Z,95.30
2024-03-12T11:42:01.644Z,95.20
2024-03-12T11:43:05.013Z,95.10
2024-03-12T11:44:09.101Z,95.00
2024-03-12T11:45:37.740Z,94.80
2024-03-12T11:46:43.814Z,94.70
2024-03-12T11:47:56.677Z,95.00
2024-03-12T11:48:59.877Z,94.70
2024-03-12T11:50:04.987Z,94.80
2024-03-12T11:51:13.475Z,94.80
2024-03-12T11:52:25.085Z,94.90
2024-03-12T11:53:36.598Z,95.00
2024-03-12T11:54:44.926Z,95.10
2024-03-12T11:56:11.680Z,95.10
2024-03-12T11:57:22.304Z,95.20
2024-03-12T11:58:48.057Z,95.20
2024-03-12T11:59:52.097Z,95.40
2024-03-12T12:00:54.975Z,95.50
2024-03-12T12:01:57.986Z,95.40
2024-03-12T12:03:01.630Z,95.40
2024-03-12T12:04:06.544Z,95.30
2024-03-12T12:05:10.539Z,95.20
2024-03-12T12:06:13.427Z,95.20
2024-03-12T12:07:16.626Z,95.20
2024-03-12T12:08:19.825Z,95.10
2024-03-12T12:09:23.931Z,95.20
2024-03-12T12:10:26.299Z,95.00
2024-03-12T12:11:29.940Z,94.80
2024-03-12T12:12:34.446Z,94.70
2024-03-12T12:13:38.579Z,94.80
2024-03-12T12:14:44.944Z,94.60
2024-03-12T12:16:02.449Z,94.70
2024-03-12T12:17:05.025Z,94.50
2024-03-12T12:18:09.501Z,94.20
2024-03-12T12:19:18.554Z,94.10
2024-03-12T12:20:25.258Z,93.80
2024-03-12T12:21:27.624Z,93.70
2024-03-12T12:22:32.300Z,93.70
2024-03-12T12:23:36.847Z,93.70
2024-03-12T12:24:40.308Z,93.40
2024-03-12T12:25:47.956Z,93.20
2024-03-12T12:26:51.256Z,93.00
2024-03-12T12:27:54.785Z,92.70
2024-03-12T12:28:58.577Z,92.60
2024-03-12T12:30:04.120Z,92.20
2024-03-12T12:31:10.843Z,92.00
2024-03-12T12:32:16.163Z,91.90
2024-03-12T12:33:18.904Z,91.70
2024-03-12T12:34:22.395Z,91.70
2024-03-12T12:35:25.015Z,91.60
2024-03-12T12:36:31.559Z,91.50
2024-03-12T12:37:34.985Z,91.60
2024-03-12T12:38:38.038Z,91.50
2024-03-12T12:39:47.873Z,91.70
2024-03-12T12:40:56.801Z,91.60
2024-03-12T12:41:59.689Z,91.70
2024-03-12T12:43:06.565Z,91.70
2024-03-12T12:44:22.980Z,91.50
2024-03-12T12:45:25.975Z,91.30
2024-03-12T12:46:29.260Z,91.20
2024-03-12T12:47:32.423Z,91.20
2024-03-12T12:48:40.697Z,91.30
2024-03-12T12:49:43.831Z,91.20
2024-03-12T12:50:59.180Z,91.60
2024-03-12T12:52:02.126Z,91.30
2024-03-12T12:53:05.981Z,91.40
2024-03-12T12:54:08.569Z,91.40
2024-03-12T12:55:11.319Z,91.30
2024-03-12T12:56:19.826Z,91.30
2024-03-12T12:57:22.428Z,91.40
2024-03-12T12:58:26.951Z,91.40
2024-03-12T12:59:34.168Z,91.20
2024-03-12T13:00:37.821Z,90.90
2024-03-12T13:01:41.416Z,90.70
2024-03-12T13:02:44.527Z,90.60
2024-03-12T13:03:51.329Z,90.50
2024-03-12T13:04:58.087Z,90.50
2024-03-12T13:06:21.732Z,90.50
2024-03-12T13:07:33.374Z,90.50
2024-03-12T13:08:40.596Z,90.50
2024-03-12T13:09:43.238Z,90.60
2024-03-12T13:10:56.205Z,90.70
2024-03-12T13:12:00.742Z,90.90
2024-03-12T13:13:04.508Z,91.00
2024-03-12T13:14:07.923Z,91.10
2024-03-12T13:15:26.713Z,91.10
2024-03-12T13:16:29.901Z,91.10
2024-03-12T13:17:32.281Z,91.00
2024-03-12T13:18:34.972Z,90.90
2024-03-12T13:19:37.582Z,91.00
2024-03-12T13:20:41.034Z,91.10
2024-03-12T13:21:43.572Z,91.10
2024-03-12T13:22:46.560Z,91.10
2024-03-12T13:23:50.967Z,91.10
2024-03-12T13:24:53.399Z,91.20
2024-03-12T13:25:56.412Z,91.30
2024-03-12T13:27:02.016Z,91.40
2024-03-12T13:28:04.841Z,91.50
2024-03-12T13:29:07.310Z,91.60
2024-03-12T13:30:10.088Z,91.70
2024-03-12T13:31:13.456Z,91.80
2024-03-12T13:32:15.874Z,91.70
2024-03-12T13:33:18.277Z,91.50
2024-03-12T13:34:20.899Z,91.20
2024-03-12T13:35:25.694Z,91.20
2024-03-12T13:36:28.453Z,91.10
2024-03-12T13:37:30.891Z,91.00
2024-03-12T13:38:34.032Z,90.90
2024-03-12T13:39:36.425Z,90.80
2024-03-12T13:40:39.041Z,90.90
2024-03-12T13:41:41.350Z,91.00
2024-03-12T13:42:43.823Z,91.00
2024-03-12T13:43:46.478Z,90.90
2024-03-12T13:44:48.824Z,90.90
2024-03-12T13:45:52.456Z,90.90
2024-03-12T13:46:55.343Z,91.00
2024-03-12T13:47:58.636Z,91.00
2024-03-12T13:49:15.765Z,91.00
2024-03-12T13:50:18.754Z,91.00
2024-03-12T13:51:21.152Z,91.00
2024-03-12T13:52:23.479Z,91.00